createdAt,value
2022-09-07T00:01:04.343Z,7.45
2022-09-07T00:03:31.350Z,6.43
2022-09-07T00:05:58.346Z,5.30
2022-09-07T00:08:27.289Z,5.80
2022-09-07T00:11:01.372Z,6.03
2022-09-07T00:13:32.772Z,6.00
2022-09-07T00:16:09.310Z,6.22
2022-09-07T00:18:36.321Z,5.63
2022-09-07T00:21:09.798Z,6.10
2022-09-07T00:23:39.414Z,6.57
2022-09-07T00:26:13.719Z,8.23
2022-09-07T00:28:40.772Z,7.97
2022-09-07T00:31:15.705Z,8.13
2022-09-07T00:33:43.889Z,8.20
2022-09-07T00:36:11.607Z,8.02
2022-09-07T00:38:38.903Z,7.10
2022-09-07T00:41:06.070Z,6.43
2022-09-07T00:43:58.362Z,7.25
2022-09-07T00:46:34.462Z,6.45
2022-09-07T00:49:18.169Z,6.03
2022-09-07T00:51:55.137Z,6.22
2022-09-07T00:54:30.989Z,5.97
2022-09-07T00:56:58.116Z,5.57
2022-09-07T00:59:30.395Z,5.38
2022-09-07T01:01:57.735Z,5.65
2022-09-07T01:04:25.390Z,4.85
2022-09-07T01:06:55.778Z,4.63
2022-09-07T01:09:25.617Z,4.93
2022-09-07T01:11:57.418Z,4.82
2022-09-07T01:14:30.968Z,5.07
2022-09-07T01:17:21.711Z,4.25
2022-09-07T01:23:35.918Z,4.10
2022-09-07T01:27:02.332Z,3.60
2022-09-07T01:29:35.614Z,4.43
2022-09-07T01:33:17.504Z,4.30
2022-09-07T01:35:55.621Z,4.00
2022-09-07T01:39:03.025Z,4.10
2022-09-07T01:41:36.437Z,3.67
2022-09-07T01:44:17.954Z,3.53
2022-09-07T01:47:15.669Z,3.53
2022-09-07T01:49:52.227Z,3.88
2022-09-07T01:52:56.214Z,3.42
2022-09-07T01:56:00.950Z,3.83
2022-09-07T01:58:49.666Z,3.88
2022-09-07T02:01:24.355Z,3.72
2022-09-07T02:04:07.998Z,3.72
2022-09-07T02:07:16.302Z,3.80
2022-09-07T02:10:26.259Z,3.50
2022-09-07T02:13:19.627Z,3.97
2022-09-07T02:16:01.643Z,4.00
2022-09-07T02:18:38.512Z,3.97
2022-09-07T02:21:08.644Z,4.50
2022-09-07T02:23:47.649Z,4.57
2022-09-07T02:26:21.696Z,4.18
2022-09-07T02:28:48.985Z,4.57
2022-09-07T02:31:16.497Z,4.70
2022-09-07T02:33:43.705Z,4.47
2022-09-07T02:36:16.194Z,4.57
2022-09-07T02:38:43.058Z,4.72
2022-09-07T02:41:41.330Z,5.18
2022-09-07T02:44:15.617Z,4.60
2022-09-07T02:46:58.959Z,4.70
2022-09-07T02:49:53.107Z,5.05
2022-09-07T02:53:13.201Z,5.30
2022-09-07T02:56:06.338Z,5.40
2022-09-07T02:58:45.026Z,5.30
2022-09-07T03:01:42.809Z,5.80
2022-09-07T03:04:46.892Z,5.57
2022-09-07T03:07:22.429Z,5.18
2022-09-07T03:09:53.409Z,5.90
2022-09-07T03:12:21.135Z,5.50
2022-09-07T03:14:48.079Z,5.18
2022-09-07T03:17:15.505Z,6.05
2022-09-07T03:19:42.389Z,5.82
2022-09-07T03:22:09.248Z,6.30
2022-09-07T03:24:37.042Z,6.03
2022-09-07T03:27:04.100Z,6.32
2022-09-07T03:29:30.955Z,5.95
2022-09-07T03:31:57.899Z,6.22
2022-09-07T03:34:24.833Z,6.43
2022-09-07T03:36:51.645Z,5.78
2022-09-07T03:39:20.959Z,5.82
2022-09-07T03:41:48.021Z,5.75
2022-09-07T03:44:14.925Z,5.60
2022-09-07T03:46:41.863Z,6.15
2022-09-07T03:49:08.745Z,5.97
2022-09-07T03:51:35.657Z,6.60
2022-09-07T03:54:02.483Z,6.75
2022-09-07T03:56:29.461Z,6.38
2022-09-07T03:58:56.349Z,6.57
2022-09-07T04:01:26.513Z,6.95
2022-09-07T04:04:01.752Z,7.03
2022-09-07T04:06:30.447Z,7.00
2022-09-07T04:09:01.050Z,7.03
2022-09-07T04:11:27.969Z,6.43
2022-09-07T04:13:54.761Z,6.88
2022-09-07T04:16:25.787Z,6.80
2022-09-07T04:18:57.709Z,7.50
2022-09-07T04:21:28.205Z,7.10
2022-09-07T04:23:55.180Z,7.55
2022-09-07T04:26:27.343Z,7.78
2022-09-07T04:28:54.618Z,7.00
2022-09-07T04:31:23.078Z,7.53
2022-09-07T04:33:52.263Z,7.75
2022-09-07T04:36:20.738Z,8.10
2022-09-07T04:38:59.666Z,7.68
2022-09-07T04:41:29.819Z,7.43
2022-09-07T04:44:02.430Z,7.78
2022-09-07T04:46:36.563Z,8.80
2022-09-07T04:49:10.667Z,8.40
2022-09-07T04:51:39.977Z,8.38
2022-09-07T04:54:07.349Z,9.00
2022-09-07T04:56:34.623Z,8.32
2022-09-07T04:59:03.042Z,9.13
2022-09-07T05:01:30.550Z,9.32
2022-09-07T05:04:00.909Z,9.35
2022-09-07T05:06:28.798Z,10.00
2022-09-07T05:08:56.592Z,9.50
2022-09-07T05:11:29.101Z,9.40
2022-09-07T05:13:58.680Z,8.95
2022-09-07T05:16:27.026Z,8.68
2022-09-07T05:18:57.696Z,8.45
2022-09-07T05:21:28.272Z,9.32
2022-09-07T05:23:57.814Z,9.25
2022-09-07T05:26:28.745Z,8.90
2022-09-07T05:31:42.789Z,9.65
2022-09-07T05:36:57.037Z,9.93
2022-09-07T05:39:24.518Z,10.05
2022-09-07T05:41:51.539Z,9.48
2022-09-07T05:47:05.710Z,10.30
2022-09-07T05:49:32.570Z,9.85
2022-09-07T05:51:59.355Z,9.40
2022-09-07T05:54:26.229Z,9.70
2022-09-07T05:56:53.234Z,9.45
2022-09-07T05:59:20.093Z,9.82
2022-09-07T06:01:46.966Z,10.32
2022-09-07T06:04:13.800Z,9.88
2022-09-07T06:06:40.722Z,9.73
2022-09-07T06:09:09.171Z,9.90
2022-09-07T06:11:36.700Z,10.07
2022-09-07T06:14:03.979Z,10.45
2022-09-07T06:16:35.022Z,10.70
2022-09-07T06:19:07.235Z,10.95
2022-09-07T06:21:38.547Z,10.85
2022-09-07T06:24:06.529Z,11.20
2022-09-07T06:26:33.625Z,11.10
2022-09-07T06:29:02.250Z,10.93
2022-09-07T06:31:29.369Z,11.63
2022-09-07T06:33:57.349Z,12.02
2022-09-07T06:36:30.172Z,11.85
2022-09-07T06:38:59.761Z,12.02
2022-09-07T06:44:20.316Z,12.98
2022-09-07T06:49:29.411Z,13.02
2022-09-07T06:51:56.429Z,13.65
2022-09-07T06:57:10.127Z,14.68
2022-09-07T06:59:38.237Z,15.02
2022-09-07T07:02:06.921Z,15.35
2022-09-07T07:04:39.483Z,15.38
2022-09-07T07:07:14.036Z,15.98
2022-09-07T07:09:41.901Z,15.02
2022-09-07T07:12:11.007Z,15.52
2022-09-07T07:14:41.308Z,15.73
2022-09-07T07:17:11.111Z,14.38
2022-09-07T07:19:38.009Z,16.40
2022-09-07T07:22:18.768Z,15.52
2022-09-07T07:24:51.674Z,17.13
2022-09-07T07:27:18.559Z,17.77
2022-09-07T07:29:45.801Z,17.65
2022-09-07T07:32:12.695Z,18.38
2022-09-07T07:35:16.849Z,19.27
2022-09-07T07:37:43.773Z,19.00
2022-09-07T07:42:45.136Z,20.08
2022-09-07T07:47:59.897Z,19.80
2022-09-07T07:50:34.386Z,20.05
2022-09-07T07:55:49.049Z,19.38
2022-09-07T07:58:16.323Z,17.27
2022-09-07T08:00:54.151Z,18.27
2022-09-07T08:03:23.703Z,17.17
2022-09-07T08:05:50.708Z,18.90
2022-09-07T08:08:18.415Z,19.45
2022-09-07T08:10:47.703Z,19.95
2022-09-07T08:13:16.521Z,19.23
2022-09-07T08:15:46.586Z,20.40
2022-09-07T08:18:16.259Z,18.75
2022-09-07T08:20:44.132Z,19.50
2022-09-07T08:23:11.682Z,17.85
2022-09-07T08:25:38.813Z,18.95
2022-09-07T08:28:06.241Z,19.25
2022-09-07T08:30:33.170Z,19.25
2022-09-07T08:32:59.980Z,17.23
2022-09-07T08:35:26.873Z,17.88
2022-09-07T08:37:54.101Z,17.95
2022-09-07T08:40:21.053Z,16.75
2022-09-07T08:43:02.886Z,17.50
2022-09-07T08:45:38.145Z,16.45
2022-09-07T08:48:05.490Z,13.88
2022-09-07T08:50:43.857Z,15.35
2022-09-07T08:53:19.742Z,15.38
2022-09-07T08:56:04.262Z,14.65
2022-09-07T08:58:55.669Z,14.10
2022-09-07T09:01:38.856Z,15.27
2022-09-07T09:04:27.486Z,12.63
2022-09-07T09:07:09.133Z,14.65
2022-09-07T09:10:20.867Z,12.63
2022-09-07T09:13:26.528Z,10.75
2022-09-07T09:16:04.620Z,13.40
2022-09-07T09:21:24.832Z,13.50
2022-09-07T09:24:00.268Z,12.45
2022-09-07T09:26:31.340Z,13.27
2022-09-07T09:28:58.123Z,13.65
2022-09-07T09:31:35.953Z,12.00
2022-09-07T09:34:05.546Z,12.73
2022-09-07T09:36:43.869Z,13.70
2022-09-07T09:39:35.590Z,12.80
2022-09-07T09:42:11.535Z,10.63
2022-09-07T09:44:39.801Z,12.27
2022-09-07T09:47:33.640Z,11.48
2022-09-07T09:53:24.407Z,10.57
2022-09-07T09:55:55.321Z,10.90
2022-09-07T10:01:36.798Z,10.05
2022-09-07T10:04:25.373Z,8.68
2022-09-07T10:07:11.157Z,8.95
2022-09-07T10:09:43.699Z,9.07
2022-09-07T10:12:34.450Z,9.40
2022-09-07T10:15:39.946Z,9.80
2022-09-07T10:18:27.543Z,8.75
2022-09-07T10:21:14.063Z,8.73
2022-09-07T10:23:41.419Z,8.48
2022-09-07T10:26:29.599Z,7.53
2022-09-07T10:29:17.287Z,7.63
2022-09-07T10:32:07.469Z,6.85
2022-09-07T10:34:49.021Z,7.60
2022-09-07T10:37:54.115Z,6.40
2022-09-07T10:40:37.620Z,5.93
2022-09-07T10:43:29.485Z,4.88
2022-09-07T10:46:56.086Z,4.07
2022-09-07T10:49:29.553Z,4.90
2022-09-07T10:52:26.761Z,4.78
2022-09-07T10:55:10.411Z,4.63
2022-09-07T10:57:49.407Z,4.33
2022-09-07T11:00:22.480Z,5.20
2022-09-07T11:03:26.945Z,4.40
2022-09-07T11:06:31.446Z,4.70
2022-09-07T11:09:29.088Z,4.25
2022-09-07T11:12:31.762Z,5.00
2022-09-07T11:15:25.710Z,4.03
2022-09-07T11:18:05.700Z,3.85
2022-09-07T11:20:42.442Z,3.78
2022-09-07T11:23:41.413Z,3.40
2022-09-07T11:26:25.392Z,2.63
2022-09-07T11:34:33.772Z,3.10
2022-09-07T11:37:16.997Z,2.85
2022-09-07T11:39:57.922Z,2.90
2022-09-07T11:42:52.342Z,2.88
2022-09-07T11:45:35.659Z,2.85
2022-09-07T11:48:30.293Z,2.60
2022-09-07T11:51:13.212Z,2.47
2022-09-07T11:53:49.180Z,2.30
2022-09-07T11:56:29.566Z,1.80
2022-09-07T11:59:23.406Z,1.95
2022-09-07T12:02:58.171Z,2.35
2022-09-07T12:05:57.764Z,2.28
2022-09-07T12:09:07.510Z,1.63
2022-09-07T12:12:08.145Z,2.03
2022-09-07T12:14:46.882Z,1.88
2022-09-07T12:18:15.034Z,2.40
2022-09-07T12:20:48.083Z,2.38
2022-09-07T12:23:29.206Z,2.80
2022-09-07T12:26:34.186Z,2.67
2022-09-07T12:29:00.882Z,2.15
2022-09-07T12:31:59.715Z,2.08
2022-09-07T12:34:34.249Z,2.42
2022-09-07T12:37:23.480Z,1.67
2022-09-07T12:39:50.319Z,1.80
2022-09-07T12:42:34.348Z,2.15
2022-09-07T12:45:42.297Z,1.73
2022-09-07T12:48:15.040Z,1.85
2022-09-07T12:51:04.546Z,1.77
2022-09-07T12:54:15.310Z,1.50
2022-09-07T12:57:29.038Z,1.80
2022-09-07T12:59:51.169Z,1.65
2022-09-07T13:02:54.567Z,2.00
2022-09-07T13:06:17.257Z,1.80
2022-09-07T13:09:05.724Z,1.75
2022-09-07T13:11:38.243Z,1.83
2022-09-07T13:14:14.990Z,1.38
2022-09-07T13:19:51.412Z,1.30
2022-09-07T13:22:38.368Z,1.40
2022-09-07T13:25:28.048Z,1.20
2022-09-07T13:28:14.053Z,1.35
2022-09-07T13:31:26.155Z,1.70
2022-09-07T13:33:54.190Z,1.67
2022-09-07T13:36:36.425Z,1.50
2022-09-07T13:39:12.668Z,1.60
2022-09-07T13:41:51.220Z,1.52
2022-09-07T13:44:26.112Z,1.40
2022-09-07T13:47:02.729Z,1.30
2022-09-07T13:50:19.931Z,1.45
2022-09-07T13:53:08.004Z,1.38
2022-09-07T13:56:05.323Z,1.58
2022-09-07T13:58:43.522Z,1.42
2022-09-07T14:01:22.859Z,1.38
2022-09-07T14:04:07.317Z,1.27
2022-09-07T14:06:37.660Z,1.27
2022-09-07T14:09:17.016Z,1.20
2022-09-07T14:11:50.937Z,1.83
2022-09-07T14:14:20.588Z,1.60
2022-09-07T14:17:13.992Z,1.20
2022-09-07T14:19:51.901Z,1.40
2022-09-07T14:22:22.833Z,1.50
2022-09-07T14:25:02.032Z,1.55
2022-09-07T14:27:41.404Z,1.38
2022-09-07T14:30:28.156Z,1.50
2022-09-07T14:33:13.425Z,1.15
2022-09-07T14:35:41.668Z,0.93
2022-09-07T14:41:15.962Z,1.13
2022-09-07T14:44:00.011Z,1.20
2022-09-07T14:49:07.621Z,1.50
2022-09-07T14:51:36.796Z,1.45
2022-09-07T14:54:07.634Z,1.35
2022-09-07T14:56:39.330Z,1.42
2022-09-07T14:59:36.785Z,0.90
2022-09-07T15:02:19.072Z,1.40
2022-09-07T15:04:49.355Z,1.40
2022-09-07T15:07:48.057Z,1.10
2022-09-07T15:10:35.540Z,1.40
2022-09-07T15:13:06.155Z,1.17
2022-09-07T15:15:39.561Z,1.20
2022-09-07T15:18:54.832Z,1.38
2022-09-07T15:21:27.978Z,1.42
2022-09-07T15:23:58.515Z,1.33
2022-09-07T15:29:20.048Z,1.60
2022-09-07T15:32:01.141Z,1.60
2022-09-07T15:34:31.341Z,1.17
2022-09-07T15:37:00.254Z,1.50
2022-09-07T15:39:29.779Z,1.60
2022-09-07T15:42:00.420Z,1.20
2022-09-07T15:44:44.924Z,1.90
2022-09-07T15:49:58.501Z,1.75
2022-09-07T15:52:25.328Z,1.05
2022-09-07T15:54:52.101Z,1.35
2022-09-07T16:00:07.348Z,1.42
2022-09-07T16:05:30.400Z,1.38
2022-09-07T16:10:45.169Z,1.58
2022-09-07T16:13:16.690Z,1.50
2022-09-07T16:15:46.364Z,1.30
2022-09-07T16:18:17.401Z,1.55
2022-09-07T16:20:45.910Z,1.40
2022-09-07T16:23:16.949Z,1.30
2022-09-07T16:28:27.510Z,1.50
2022-09-07T16:30:56.263Z,1.77
2022-09-07T16:33:32.779Z,1.33
2022-09-07T16:36:23.546Z,1.70
2022-09-07T16:38:57.763Z,1.65
2022-09-07T16:41:31.711Z,1.30
2022-09-07T16:43:59.391Z,1.38
2022-09-07T16:46:35.232Z,1.60
2022-09-07T16:49:03.097Z,1.75
2022-09-07T16:51:29.879Z,1.45
2022-09-07T16:53:58.921Z,1.60
2022-09-07T16:56:29.665Z,1.85
2022-09-07T16:59:00.678Z,1.58
2022-09-07T17:01:35.060Z,1.60
2022-09-07T17:04:05.605Z,1.50
2022-09-07T17:06:35.023Z,1.50
2022-09-07T17:09:01.872Z,1.20
2022-09-07T17:11:34.918Z,1.80
2022-09-07T17:14:02.618Z,1.52
2022-09-07T17:16:33.531Z,1.55
2022-09-07T17:21:51.765Z,1.50
2022-09-07T17:24:19.799Z,1.88
2022-09-07T17:26:46.820Z,1.55
2022-09-07T17:29:13.604Z,1.85
2022-09-07T17:34:32.014Z,1.70
2022-09-07T17:37:00.629Z,1.80
2022-09-07T17:39:27.921Z,1.73
2022-09-07T17:41:55.034Z,1.50
2022-09-07T17:44:30.800Z,1.55
2022-09-07T17:47:00.164Z,1.77
2022-09-07T17:49:29.327Z,1.60
2022-09-07T17:51:58.468Z,2.38
2022-09-07T17:54:25.840Z,3.95
2022-09-07T17:56:53.237Z,3.75
2022-09-07T18:02:06.838Z,5.63
2022-09-07T18:04:35.734Z,3.28
2022-09-07T18:07:03.344Z,3.00
2022-09-07T18:09:30.316Z,2.53
2022-09-07T18:11:57.120Z,2.45
2022-09-07T18:14:23.951Z,2.58
2022-09-07T18:16:50.920Z,2.05
2022-09-07T18:19:18.948Z,1.80
2022-09-07T18:21:47.830Z,2.00
2022-09-07T18:24:23.972Z,2.50
2022-09-07T18:26:53.803Z,1.85
2022-09-07T18:29:33.915Z,1.83
2022-09-07T18:32:08.243Z,2.00
2022-09-07T18:34:37.696Z,2.17
2022-09-07T18:37:05.160Z,1.83
2022-09-07T18:39:33.485Z,2.05
2022-09-07T18:42:00.442Z,2.08
2022-09-07T18:47:23.188Z,2.20
2022-09-07T18:49:51.419Z,2.20
2022-09-07T18:55:08.583Z,1.95
2022-09-07T18:57:36.477Z,2.03
2022-09-07T19:00:06.863Z,1.90
2022-09-07T19:02:33.906Z,2.35
2022-09-07T19:07:47.648Z,2.13
2022-09-07T19:10:16.637Z,2.45
2022-09-07T19:12:45.838Z,2.50
2022-09-07T19:15:13.932Z,2.30
2022-09-07T19:17:40.901Z,2.80
2022-09-07T19:20:08.459Z,2.22
2022-09-07T19:22:35.274Z,2.65
2022-09-07T19:25:02.069Z,2.88
2022-09-07T19:27:29.181Z,2.45
2022-09-07T19:29:55.951Z,2.95
2022-09-07T19:32:22.810Z,3.20
2022-09-07T19:34:54.413Z,3.20
2022-09-07T19:37:25.910Z,3.10
2022-09-07T19:39:56.872Z,2.75
2022-09-07T19:42:25.730Z,3.28
2022-09-07T19:44:54.120Z,3.05
2022-09-07T19:47:22.069Z,3.40
2022-09-07T19:49:48.857Z,2.92
2022-09-07T19:52:15.669Z,2.67
2022-09-07T19:54:43.829Z,3.20
2022-09-07T19:57:10.660Z,2.83
2022-09-07T19:59:37.408Z,2.90
2022-09-07T20:02:04.194Z,3.20
2022-09-07T20:04:31.082Z,2.92
2022-09-07T20:06:57.937Z,3.55
2022-09-07T20:09:25.834Z,3.05
2022-09-07T20:11:52.741Z,3.20
2022-09-07T20:14:19.866Z,3.13
2022-09-07T20:16:46.744Z,3.90
2022-09-07T20:19:15.107Z,3.38
2022-09-07T20:21:43.085Z,3.70
2022-09-07T20:24:14.416Z,3.10
2022-09-07T20:26:41.324Z,3.15
2022-09-07T20:29:26.897Z,3.35
2022-09-07T20:31:57.823Z,3.78
2022-09-07T20:34:25.516Z,4.20
2022-09-07T20:36:53.093Z,4.20
2022-09-07T20:39:21.736Z,3.28
2022-09-07T20:41:48.731Z,3.83
2022-09-07T20:44:16.151Z,3.58
2022-09-07T20:46:43.556Z,3.33
2022-09-07T20:49:10.814Z,3.95
2022-09-07T20:51:38.646Z,4.05
2022-09-07T20:54:07.039Z,4.10
2022-09-07T20:56:34.071Z,3.67
2022-09-07T20:59:03.004Z,4.25
2022-09-07T21:01:32.567Z,4.05
2022-09-07T21:04:01.217Z,3.60
2022-09-07T21:06:31.557Z,3.42
2022-09-07T21:08:59.228Z,3.38
2022-09-07T21:11:33.095Z,2.85
2022-09-07T21:14:06.476Z,3.33
2022-09-07T21:16:35.488Z,2.78
2022-09-07T21:19:06.859Z,2.85
2022-09-07T21:21:41.231Z,2.92
2022-09-07T21:24:21.218Z,2.70
2022-09-07T21:26:50.197Z,2.95
2022-09-07T21:29:24.179Z,3.30
2022-09-07T21:31:53.602Z,2.97
2022-09-07T21:34:22.483Z,2.72
2022-09-07T21:36:49.613Z,3.63
2022-09-07T21:39:16.774Z,2.58
2022-09-07T21:41:45.102Z,3.30
2022-09-07T21:44:14.814Z,3.25
2022-09-07T21:46:44.001Z,3.22
2022-09-07T21:49:11.340Z,3.03
2022-09-07T21:51:38.317Z,3.00
2022-09-07T21:54:06.070Z,3.08
2022-09-07T21:56:33.095Z,3.00
2022-09-07T21:59:02.414Z,3.15
2022-09-07T22:01:31.534Z,3.17
2022-09-07T22:04:04.957Z,3.03
2022-09-07T22:06:33.435Z,2.92
2022-09-07T22:09:01.690Z,2.95
2022-09-07T22:11:30.062Z,3.08
2022-09-07T22:14:03.300Z,3.42
2022-09-07T22:16:33.105Z,3.53
2022-09-07T22:19:00.481Z,3.70
2022-09-07T22:21:29.752Z,3.45
2022-09-07T22:24:03.741Z,3.47
2022-09-07T22:26:40.267Z,3.75
2022-09-07T22:29:10.966Z,3.42
2022-09-07T22:31:40.765Z,2.92
2022-09-07T22:34:09.384Z,3.25
2022-09-07T22:36:43.293Z,3.15
2022-09-07T22:39:14.912Z,3.00
2022-09-07T22:41:43.327Z,3.25
2022-09-07T22:44:15.086Z,2.80
2022-09-07T22:49:14.365Z,2.85
2022-09-07T22:51:41.222Z,3.08
2022-09-07T22:54:08.468Z,3.00
2022-09-07T22:56:36.986Z,2.72
2022-09-07T22:59:09.287Z,3.25
2022-09-07T23:01:37.477Z,3.30
2022-09-07T23:04:05.486Z,3.63
2022-09-07T23:06:40.037Z,3.80
2022-09-07T23:09:17.448Z,3.83
2022-09-07T23:11:46.206Z,4.10
2022-09-07T23:14:20.680Z,3.60
2022-09-07T23:16:49.250Z,3.70
2022-09-07T23:19:19.565Z,4.40
2022-09-07T23:21:46.799Z,5.50
2022-09-07T23:24:17.080Z,4.65
2022-09-07T23:26:44.689Z,5.35
2022-09-07T23:29:13.687Z,6.00
2022-09-07T23:31:41.876Z,5.47
2022-09-07T23:34:09.482Z,4.70
2022-09-07T23:36:37.127Z,5.22
2022-09-07T23:39:04.202Z,5.88
2022-09-07T23:41:31.118Z,5.32
2022-09-07T23:43:57.913Z,5.18
2022-09-07T23:46:24.815Z,5.90
2022-09-07T23:48:51.702Z,4.80
2022-09-07T23:51:23.463Z,5.57
2022-09-07T23:53:51.888Z,5.88
2022-09-07T23:56:19.264Z,5.85
2022-09-07T23:58:46.166Z,5.07
